Time;durP1;ratioP1;P1;durP2;ratioP2;P2;SDS_P1;SDS_P2;PMS_P1;PMS_P2;Temp;Humidity;BMP_temperature;BMP_pressure;BME280_temperature;BME280_humidity;BME280_pressure;Samples;Min_cycle;Max_cycle;Signal;HPM_P1;HPM_P2
2021/01/07 00:00:14;;;;;;;1999.90;999.90;;;3.30;99.90;;;;;;4985864;28;20181;-85
2021/01/07 00:02:40;;;;;;;1999.90;999.90;;;3.30;99.90;;;;;;5003815;28;20198;-85
2021/01/07 00:05:06;;;;;;;1999.90;999.90;;;3.20;99.90;;;;;;5003310;28;20176;-85
2021/01/07 00:07:33;;;;;;;1999.90;999.90;;;3.20;99.90;;;;;;5002737;28;20237;-84
2021/01/07 00:10:13;;;;;;;1999.90;999.90;;;3.20;99.90;;;;;;5002934;28;20159;-85
2021/01/07 00:12:39;;;;;;;1999.90;999.90;;;3.30;99.90;;;;;;4985680;28;20575;-85
2021/01/07 00:15:06;;;;;;;1999.90;999.90;;;3.20;99.90;;;;;;5003950;28;20163;-85
2021/01/07 00:17:32;;;;;;;1999.90;999.90;;;3.20;99.90;;;;;;4986011;28;20174;-85
2021/01/07 00:19:57;;;;;;;1999.90;999.90;;;3.20;99.90;;;;;;4984942;28;20266;-85
2021/01/07 00:22:23;;;;;;;1999.90;999.90;;;3.10;99.90;;;;;;4986233;28;20198;-85
2021/01/07 00:24:49;;;;;;;1999.90;999.90;;;3.20;99.90;;;;;;4986263;28;20224;-85
2021/01/07 00:27:14;;;;;;;1999.90;999.90;;;3.20;99.90;;;;;;5003476;28;20229;-85
2021/01/07 00:29:40;;;;;;;1999.90;999.90;;;3.30;99.90;;;;;;5003163;28;20220;-84
2021/01/07 00:32:06;;;;;;;1999.90;999.90;;;3.30;99.90;;;;;;5002812;28;20162;-85
2021/01/07 00:34:32;;;;;;;1999.90;999.90;;;3.30;99.90;;;;;;4985693;28;20637;-85
2021/01/07 00:36:58;;;;;;;1999.90;999.90;;;3.30;99.90;;;;;;5002996;28;20169;-85
2021/01/07 00:39:24;;;;;;;1999.90;999.90;;;3.30;99.90;;;;;;4985877;28;20174;-84
2021/01/07 00:41:55;;;;;;;1999.90;999.90;;;3.30;99.90;;;;;;4985590;28;20167;-85
2021/01/07 00:44:21;;;;;;;1999.90;999.90;;;3.40;99.90;;;;;;5003354;28;20212;-85
2021/01/07 00:46:47;;;;;;;1999.90;999.90;;;3.40;99.90;;;;;;4984857;28;20201;-85
2021/01/07 00:49:13;;;;;;;1999.90;999.90;;;3.30;99.90;;;;;;5001694;28;20181;-85
2021/01/07 00:51:38;;;;;;;1999.90;999.90;;;3.30;99.90;;;;;;5002850;28;20638;-85
2021/01/07 00:54:04;;;;;;;1999.90;999.90;;;3.40;99.90;;;;;;5002176;28;20402;-85
2021/01/07 00:56:35;;;;;;;1999.90;999.90;;;3.30;99.90;;;;;;5001720;28;20173;-85
2021/01/07 00:59:01;;;;;;;1999.90;999.90;;;3.30;99.90;;;;;;5002122;28;20630;-85
2021/01/07 01:01:26;;;;;;;1999.90;999.90;;;3.30;99.90;;;;;;5002245;28;20171;-85
2021/01/07 01:03:52;;;;;;;1999.90;999.90;;;3.30;99.90;;;;;;4985002;28;20171;-85
2021/01/07 01:06:18;;;;;;;1999.90;999.90;;;3.30;99.90;;;;;;4984798;28;20573;-85
2021/01/07 01:08:43;;;;;;;1999.90;999.90;;;3.30;99.90;;;;;;5002073;28;20217;-85
2021/01/07 01:11:09;;;;;;;1999.90;999.90;;;3.30;99.90;;;;;;5001496;28;20162;-85
2021/01/07 01:13:34;;;;;;;1999.90;999.90;;;3.30;99.90;;;;;;5001413;28;20638;-85
2021/01/07 01:16:00;;;;;;;1999.90;999.90;;;3.30;99.90;;;;;;5001849;28;20174;-85
2021/01/07 01:18:26;;;;;;;1999.90;999.90;;;3.20;99.90;;;;;;5001536;28;20171;-85
2021/01/07 01:20:51;;;;;;;1999.90;999.90;;;3.20;99.90;;;;;;5001140;28;20201;-85
2021/01/07 01:23:17;;;;;;;1999.90;999.90;;;3.30;99.90;;;;;;5001025;28;20162;-85
2021/01/07 01:25:42;;;;;;;1999.90;999.90;;;3.30;99.90;;;;;;4983512;28;20175;-85
2021/01/07 01:28:08;;;;;;;1999.90;999.90;;;3.20;99.90;;;;;;5001771;28;20214;-85
2021/01/07 01:30:34;;;;;;;1999.90;999.90;;;3.30;99.90;;;;;;5000930;28;20163;-85
2021/01/07 01:32:59;;;;;;;1999.90;999.90;;;3.20;99.90;;;;;;4983790;28;20166;-85
2021/01/07 01:35:25;;;;;;;1999.90;999.90;;;3.30;99.90;;;;;;5000834;28;20178;-85
2021/01/07 01:37:56;;;;;;;1999.90;999.90;;;3.30;99.90;;;;;;4983748;28;20170;-85
2021/01/07 01:40:22;;;;;;;1999.90;999.90;;;3.30;99.90;;;;;;5001184;28;20487;-85
2021/01/07 01:42:47;;;;;;;1999.90;999.90;;;3.30;99.90;;;;;;5000496;28;20221;-85
2021/01/07 01:45:13;;;;;;;1999.90;999.90;;;3.30;99.90;;;;;;5000920;28;20660;-85
2021/01/07 01:47:39;;;;;;;1999.90;999.90;;;3.20;99.90;;;;;;5001012;28;20210;-85
2021/01/07 01:50:05;;;;;;;1999.90;999.90;;;3.30;99.90;;;;;;5109638;23;20499;-80
2021/01/07 01:52:40;;;;;;;1999.90;999.90;;;3.20;99.90;;;;;;5023404;28;20173;-79
2021/01/07 01:55:07;;;;;;;1999.90;999.90;;;3.10;99.90;;;;;;5023837;28;20153;-80
2021/01/07 01:57:33;;;;;;;1999.90;999.90;;;3.10;99.90;;;;;;5023963;28;20264;-80
2021/01/07 01:59:59;;;;;;;1999.90;999.90;;;3.10;99.90;;;;;;5023557;28;20189;-80
2021/01/07 02:02:24;;;;;;;1999.90;999.90;;;3.00;99.90;;;;;;5005801;28;20998;-80
2021/01/07 02:04:50;;;;;;;1999.90;999.90;;;3.00;99.90;;;;;;5005812;28;20177;-80
2021/01/07 02:07:23;;;;;;;1999.90;999.90;;;3.10;99.90;;;;;;5005527;28;20449;-80
2021/01/07 02:09:50;;;;;;;1999.90;999.90;;;3.10;99.90;;;;;;5024020;28;20194;-80
2021/01/07 02:12:16;;;;;;;1999.90;999.90;;;3.20;99.90;;;;;;5022641;28;20188;-80
2021/01/07 02:14:43;;;;;;;1999.90;999.90;;;3.30;99.90;;;;;;5006311;28;20220;-80
2021/01/07 02:17:13;;;;;;;1999.90;999.90;;;3.20;99.90;;;;;;5005667;28;20173;-80
2021/01/07 02:19:40;;;;;;;1999.90;999.90;;;3.20;99.90;;;;;;5023592;28;20170;-80
2021/01/07 02:22:06;;;;;;;1999.90;999.90;;;3.30;99.90;;;;;;5023465;28;20173;-80
2021/01/07 02:24:32;;;;;;;1999.90;999.90;;;3.30;99.90;;;;;;5023296;28;20227;-80
2021/01/07 02:27:10;;;;;;;1999.90;999.90;;;3.10;99.90;;;;;;5022961;28;20190;-80
2021/01/07 02:29:37;;;;;;;1999.90;999.90;;;3.10;99.90;;;;;;5021901;28;20617;-80
2021/01/07 02:32:04;;;;;;;1999.90;999.90;;;3.20;99.90;;;;;;5005801;28;20609;-80
2021/01/07 02:34:30;;;;;;;1999.90;999.90;;;3.20;99.90;;;;;;5023006;28;20170;-80
2021/01/07 02:36:56;;;;;;;1999.90;999.90;;;3.30;99.90;;;;;;5023077;28;20166;-80
2021/01/07 02:39:21;;;;;;;1999.90;999.90;;;3.20;99.90;;;;;;5022246;28;20173;-80
2021/01/07 02:41:51;;;;;;;1999.90;999.90;;;3.20;99.90;;;;;;5023077;28;20393;-80
2021/01/07 02:44:20;;;;;;;1999.90;999.90;;;3.20;99.90;;;;;;5021390;28;20237;-80
2021/01/07 02:46:49;;;;;;;1999.90;999.90;;;3.20;99.90;;;;;;5022811;28;20510;-80
2021/01/07 02:49:15;;;;;;;1999.90;999.90;;;3.20;99.90;;;;;;5005514;28;20189;-80
2021/01/07 02:51:41;;;;;;;1999.90;999.90;;;3.20;99.90;;;;;;5005579;28;20166;-79
2021/01/07 02:54:07;;;;;;;1999.90;999.90;;;3.20;99.90;;;;;;5005299;28;20174;-79
2021/01/07 02:56:33;;;;;;;1999.90;999.90;;;3.20;99.90;;;;;;5022789;28;20272;-80
2021/01/07 02:58:59;;;;;;;1999.90;999.90;;;3.20;99.90;;;;;;5004933;28;20397;-79
2021/01/07 03:01:25;;;;;;;1999.90;999.90;;;3.20;99.90;;;;;;5023267;28;20168;-80
2021/01/07 03:03:51;;;;;;;1999.90;999.90;;;3.20;99.90;;;;;;5023019;28;20185;-80
2021/01/07 03:06:16;;;;;;;1999.90;999.90;;;3.20;99.90;;;;;;5023024;28;20161;-80
2021/01/07 03:08:42;;;;;;;1999.90;999.90;;;3.20;99.90;;;;;;5005233;28;20277;-80
2021/01/07 03:11:09;;;;;;;1999.90;999.90;;;3.20;99.90;;;;;;5022707;28;20397;-80
2021/01/07 03:13:35;;;;;;;1999.90;999.90;;;3.20;99.90;;;;;;5022357;28;20158;-80
2021/01/07 03:16:00;;;;;;;1999.90;999.90;;;3.20;99.90;;;;;;5004981;28;20161;-80
2021/01/07 03:18:26;;;;;;;1999.90;999.90;;;3.10;99.90;;;;;;5022407;28;20162;-80
2021/01/07 03:20:52;;;;;;;1999.90;999.90;;;3.20;99.90;;;;;;5022573;28;20170;-80
2021/01/07 03:23:17;;;;;;;1999.90;999.90;;;3.20;99.90;;;;;;5004481;28;20188;-80
2021/01/07 03:25:43;;;;;;;1999.90;999.90;;;3.20;99.90;;;;;;5022634;28;20165;-80
2021/01/07 03:28:14;;;;;;;1999.90;999.90;;;3.20;99.90;;;;;;5022528;28;20189;-79
2021/01/07 03:30:40;;;;;;;1999.90;999.90;;;3.20;99.90;;;;;;5025891;28;20193;-79
2021/01/07 03:33:06;;;;;;;1999.90;999.90;;;3.20;99.90;;;;;;5026245;28;20158;-81
2021/01/07 03:35:32;;;;;;;1999.90;999.90;;;3.20;99.90;;;;;;5026708;28;20158;-81
2021/01/07 03:37:59;;;;;;;1999.90;999.90;;;3.10;99.90;;;;;;5008852;28;20189;-81
2021/01/07 03:40:25;;;;;;;1999.90;999.90;;;3.10;99.90;;;;;;5026342;28;20549;-81
2021/01/07 03:42:51;;;;;;;1999.90;999.90;;;3.00;99.90;;;;;;5026090;28;20216;-81
2021/01/07 03:45:16;;;;;;;1999.90;999.90;;;3.10;99.90;;;;;;5026257;28;20201;-81
2021/01/07 03:47:42;;;;;;;1999.90;999.90;;;3.10;99.90;;;;;;5008759;28;20312;-81
2021/01/07 03:50:09;;;;;;;1999.90;999.90;;;3.10;99.90;;;;;;5008537;28;20213;-81
2021/01/07 03:52:34;;;;;;;1999.90;999.90;;;3.10;99.90;;;;;;5008902;28;20257;-81
2021/01/07 03:55:00;;;;;;;1999.90;999.90;;;3.10;99.90;;;;;;5025946;28;20528;-81
2021/01/07 03:57:26;;;;;;;1999.90;999.90;;;3.10;99.90;;;;;;5026505;28;20190;-81
2021/01/07 03:59:54;;;;;;;1999.90;999.90;;;3.10;99.90;;;;;;5024684;28;20641;-81
2021/01/07 04:02:20;;;;;;;1999.90;999.90;;;3.10;99.90;;;;;;5025155;28;20173;-81
2021/01/07 04:04:48;;;;;;;1999.90;999.90;;;3.10;99.90;;;;;;5008399;28;20166;-80
2021/01/07 04:07:14;;;;;;;1999.90;999.90;;;3.00;99.90;;;;;;5024837;28;20272;-81
2021/01/07 04:09:39;;;;;;;1999.90;999.90;;;3.00;99.90;;;;;;5025342;28;20178;-81
2021/01/07 04:12:06;;;;;;;1999.90;999.90;;;3.10;99.90;;;;;;5025710;28;20173;-81
2021/01/07 04:14:31;;;;;;;1999.90;999.90;;;3.00;99.90;;;;;;5008097;28;20166;-81
2021/01/07 04:16:57;;;;;;;1999.90;999.90;;;3.00;99.90;;;;;;5024162;28;20192;-81
2021/01/07 04:19:23;;;;;;;1999.90;999.90;;;3.00;99.90;;;;;;5025544;28;20166;-81
2021/01/07 04:21:49;;;;;;;1999.90;999.90;;;3.10;99.90;;;;;;5008384;28;20508;-81
2021/01/07 04:24:16;;;;;;;1999.90;999.90;;;3.00;99.90;;;;;;5024443;28;20166;-81
2021/01/07 04:26:48;;;;;;;1999.90;999.90;;;3.00;99.90;;;;;;5025772;28;20166;-81
2021/01/07 04:29:13;;;;;;;1999.90;999.90;;;3.00;99.90;;;;;;5008153;28;20664;-81
2021/01/07 04:31:39;;;;;;;1999.90;999.90;;;3.10;99.90;;;;;;5025430;28;20162;-81
2021/01/07 04:34:06;;;;;;;1999.90;999.90;;;3.10;99.90;;;;;;5024788;28;20162;-80
2021/01/07 04:36:34;;;;;;;1999.90;999.90;;;3.10;99.90;;;;;;5025624;28;20174;-80
2021/01/07 04:38:59;;;;;;;1999.90;999.90;;;3.10;99.90;;;;;;5025395;28;20219;-81
2021/01/07 04:41:25;;;;;;;1999.90;999.90;;;3.20;99.90;;;;;;5007253;28;20165;-81
2021/01/07 04:43:56;;;;;;;1999.90;999.90;;;3.10;99.90;;;;;;5007659;28;20177;-81
2021/01/07 04:46:22;;;;;;;1999.90;999.90;;;3.10;99.90;;;;;;5025202;28;20192;-81
2021/01/07 04:48:48;;;;;;;1999.90;999.90;;;3.10;99.90;;;;;;5025399;28;20590;-80
2021/01/07 04:51:14;;;;;;;1999.90;999.90;;;3.10;99.90;;;;;;5008143;28;20409;-81
2021/01/07 04:53:40;;;;;;;1999.90;999.90;;;3.10;99.90;;;;;;5006654;28;20177;-81
2021/01/07 04:56:05;;;;;;;1999.90;999.90;;;3.00;99.90;;;;;;5024635;28;20521;-81
2021/01/07 04:58:31;;;;;;;1999.90;999.90;;;3.00;99.90;;;;;;5006552;28;20252;-81
2021/01/07 05:01:00;;;;;;;1999.90;999.90;;;3.00;99.90;;;;;;5024767;28;20175;-81
2021/01/07 05:03:30;;;;;;;1999.90;999.90;;;3.00;99.90;;;;;;5025247;28;20162;-81
2021/01/07 05:05:59;;;;;;;1999.90;999.90;;;2.90;99.90;;;;;;5006977;28;20188;-81
2021/01/07 05:08:26;;;;;;;1999.90;999.90;;;2.90;99.90;;;;;;5024569;28;20236;-81
2021/01/07 05:10:53;;;;;;;1999.90;999.90;;;2.90;99.90;;;;;;5024563;28;20176;-81
2021/01/07 05:13:20;;;;;;;1999.90;999.90;;;2.80;99.90;;;;;;5007691;28;20166;-80
2021/01/07 05:15:46;;;;;;;1999.90;999.90;;;2.80;99.90;;;;;;5024327;28;20161;-80
2021/01/07 05:18:12;;;;;;;1999.90;999.90;;;2.90;99.90;;;;;;5024339;28;20177;-81
2021/01/07 05:20:39;;;;;;;1999.90;999.90;;;2.90;99.90;;;;;;5006307;28;20177;-81
2021/01/07 05:23:06;;;;;;;1999.90;999.90;;;2.90;99.90;;;;;;5024237;28;20170;-81
2021/01/07 05:25:37;;;;;;;1999.90;999.90;;;3.00;99.90;;;;;;5024603;28;20174;-81
2021/01/07 05:28:06;;;;;;;1999.90;999.90;;;3.00;99.90;;;;;;5007497;28;20198;-81
2021/01/07 05:30:33;;;;;;;1999.90;999.90;;;3.00;99.90;;;;;;5024354;28;20181;-81
2021/01/07 05:33:07;;;;;;;1999.90;999.90;;;3.00;99.90;;;;;;5007202;28;20224;-81
2021/01/07 05:35:37;;;;;;;1999.90;999.90;;;2.90;99.90;;;;;;5023528;28;20184;-81
2021/01/07 05:38:07;;;;;;;1999.90;999.90;;;3.00;99.90;;;;;;5024053;28;20158;-80
2021/01/07 05:40:36;;;;;;;1999.90;999.90;;;3.10;99.90;;;;;;5006487;28;20178;-81
2021/01/07 05:43:10;;;;;;;1999.90;999.90;;;3.10;99.90;;;;;;5006485;28;20181;-81
2021/01/07 05:45:40;;;;;;;1999.90;999.90;;;3.10;99.90;;;;;;5024564;28;20242;-81
2021/01/07 05:48:06;;;;;;;1999.90;999.90;;;3.20;99.90;;;;;;5006701;28;20194;-81
2021/01/07 05:50:39;;;;;;;1999.90;999.90;;;3.30;99.90;;;;;;5006050;28;20193;-81
2021/01/07 05:53:05;;;;;;;1999.90;999.90;;;3.20;99.90;;;;;;5023026;28;20166;-81
2021/01/07 05:55:31;;;;;;;1999.90;999.90;;;3.20;99.90;;;;;;5023767;28;20257;-81
2021/01/07 05:58:01;;;;;;;1999.90;999.90;;;3.10;99.90;;;;;;5005847;28;20612;-81
2021/01/07 06:00:32;;;;;;;1999.90;999.90;;;3.00;99.90;;;;;;5006217;28;20792;-81
2021/01/07 06:03:00;;;;;;;1999.90;999.90;;;3.00;99.90;;;;;;5023826;28;20170;-81
2021/01/07 06:05:29;;;;;;;1999.90;999.90;;;3.10;99.90;;;;;;5024136;28;20209;-81
2021/01/07 06:07:56;;;;;;;1999.90;999.90;;;3.10;99.90;;;;;;5005951;28;20564;-81
2021/01/07 06:10:25;;;;;;;1999.90;999.90;;;3.10;99.90;;;;;;5005669;28;20249;-81
2021/01/07 06:12:52;;;;;;;1999.90;999.90;;;3.00;99.90;;;;;;5005481;28;20169;-81
2021/01/07 06:15:20;;;;;;;1999.90;999.90;;;3.10;99.90;;;;;;5020660;28;20220;-81
2021/01/07 06:17:47;;;;;;;1999.90;999.90;;;3.10;99.90;;;;;;5022757;28;20169;-81
2021/01/07 06:20:22;;;;;;;1999.90;999.90;;;3.00;99.90;;;;;;5023199;28;20224;-81
2021/01/07 06:22:53;;;;;;;1999.90;999.90;;;3.00;99.90;;;;;;5007504;28;20169;-80
2021/01/07 06:25:22;;;;;;;1999.90;999.90;;;3.10;99.90;;;;;;5006146;28;20162;-81
2021/01/07 06:27:52;;;;;;;1999.90;999.90;;;3.00;99.90;;;;;;5005401;28;20233;-81
2021/01/07 06:30:18;;;;;;;1999.90;999.90;;;3.00;99.90;;;;;;5022905;28;20143;-81
2021/01/07 06:32:46;;;;;;;1999.90;999.90;;;3.00;99.90;;;;;;5004716;28;20169;-80
2021/01/07 06:35:16;;;;;;;1999.90;999.90;;;3.10;99.90;;;;;;5021594;28;20166;-81
2021/01/07 06:37:47;;;;;;;1999.90;999.90;;;3.10;99.90;;;;;;5004591;28;20170;-81
2021/01/07 06:40:14;;;;;;;1999.90;999.90;;;3.10;99.90;;;;;;5021641;28;20154;-81
2021/01/07 06:42:45;;;;;;;1999.90;999.90;;;3.10;99.90;;;;;;5021474;28;20173;-81
2021/01/07 06:45:12;;;;;;;1999.90;999.90;;;3.10;99.90;;;;;;5022004;28;20158;-81
2021/01/07 06:47:39;;;;;;;1999.90;999.90;;;3.10;99.90;;;;;;5021109;28;20211;-81
2021/01/07 06:50:05;;;;;;;1999.90;999.90;;;3.10;99.90;;;;;;5023334;28;20177;-80
2021/01/07 06:52:45;;;;;;;1999.90;999.90;;;3.20;99.90;;;;;;5003926;28;20197;-81
2021/01/07 06:55:12;;;;;;;1999.90;999.90;;;3.20;99.90;;;;;;5004064;28;20165;-81
2021/01/07 06:57:55;;;;;;;1999.90;999.90;;;3.10;99.90;;;;;;5021350;28;20166;-81
2021/01/07 07:00:23;;;;;;;1999.90;999.90;;;3.20;99.90;;;;;;5022631;28;20237;-81
2021/01/07 07:03:22;;;;;;;1999.90;999.90;;;3.10;99.90;;;;;;5004077;28;20545;-81
2021/01/07 07:05:56;;;;;;;1999.90;999.90;;;3.10;99.90;;;;;;5008172;28;20572;-81
2021/01/07 07:08:44;;;;;;;1999.90;999.90;;;3.10;99.90;;;;;;5025305;28;20192;-80
2021/01/07 07:11:26;;;;;;;1999.90;999.90;;;3.10;99.90;;;;;;5026048;28;20201;-81
2021/01/07 07:13:54;;;;;;;1999.90;999.90;;;3.20;99.90;;;;;;5025609;28;20212;-81
2021/01/07 07:16:20;;;;;;;1999.90;999.90;;;3.20;99.90;;;;;;5025870;28;20179;-81
2021/01/07 07:18:46;;;;;;;1999.90;999.90;;;3.20;99.90;;;;;;5025104;28;20190;-80
2021/01/07 07:21:21;;;;;;;1999.90;999.90;;;3.20;99.90;;;;;;5025562;28;20500;-81
2021/01/07 07:23:53;;;;;;;1999.90;999.90;;;3.20;99.90;;;;;;5006853;28;20404;-81
2021/01/07 07:27:03;;;;;;;1999.90;999.90;;;3.20;99.90;;;;;;5021947;28;20174;-81
2021/01/07 07:34:11;;;;;;;;;;;;;;;;;;;;;
2021/01/07 07:37:07;;;;;;;1999.90;999.90;;;3.30;99.90;;;;;;4941857;29;20173;-80
2021/01/07 07:46:56;;;;;;;1999.90;999.90;;;3.30;99.90;;;;;;4866623;29;20270;-80
2021/01/07 07:49:34;;;;;;;1999.90;999.90;;;3.30;99.90;;;;;;4868882;29;20214;-80
2021/01/07 07:52:16;;;;;;;1999.90;999.90;;;3.30;99.90;;;;;;4903354;29;20180;-80
2021/01/07 07:55:25;;;;;;;1999.90;999.90;;;3.30;99.90;;;;;;4903215;29;20269;-82
2021/01/07 07:58:43;;;;;;;1999.90;999.90;;;3.30;99.90;;;;;;4995153;28;20197;-79
2021/01/07 08:01:52;;;;;;;1999.90;999.90;;;3.30;99.90;;;;;;5021405;28;20162;-81
2021/01/07 08:04:23;;;;;;;1999.90;999.90;;;3.30;99.90;;;;;;4978887;28;20637;-81
2021/01/07 08:07:22;;;;;;;1999.90;999.90;;;3.40;99.90;;;;;;5021572;28;20590;-81
2021/01/07 08:13:18;;;;;;;1999.90;999.90;;;3.40;99.90;;;;;;4992244;28;20261;-81
2021/01/07 08:16:20;;;;;;;1999.90;999.90;;;3.40;99.90;;;;;;5001878;28;20188;-81
2021/01/07 08:19:04;;;;;;;;;;;;;;;;;;;;;
2021/01/07 08:23:10;;;;;;;;;;;;;;;;;;;;;
2021/01/07 08:25:28;;;;;;;1999.90;999.90;;;3.30;99.90;;;;;;5008193;28;20592;-81
2021/01/07 08:28:40;;;;;;;1999.90;999.90;;;3.30;99.90;;;;;;5020092;28;20200;-80
2021/01/07 08:37:56;;;;;;;1999.90;999.90;;;3.40;99.90;;;;;;5018209;28;20161;-80
2021/01/07 08:40:39;;;;;;;1999.90;999.90;;;3.40;99.90;;;;;;5019509;28;20166;-80
2021/01/07 08:44:03;;;;;;;1999.90;999.90;;;3.40;99.90;;;;;;4994458;28;20264;-80
2021/01/07 08:46:53;;;;;;;1999.90;999.90;;;3.40;99.90;;;;;;5002103;28;20181;-81
2021/01/07 08:49:27;;;;;;;1999.90;999.90;;;3.30;99.90;;;;;;5020746;28;20177;-79
2021/01/07 08:52:00;;;;;;;1999.90;999.90;;;3.30;99.90;;;;;;5002298;28;20185;-79
2021/01/07 08:54:26;;;;;;;1999.90;999.90;;;3.30;99.90;;;;;;5001476;28;20205;-80
2021/01/07 08:57:28;;;;;;;1999.90;999.90;;;3.30;99.90;;;;;;5019439;28;20166;-78
2021/01/07 09:00:17;;;;;;;1999.90;999.90;;;3.30;99.90;;;;;;5019880;28;20138;-80
2021/01/07 09:02:49;;;;;;;1999.90;999.90;;;3.30;99.90;;;;;;5002511;28;20162;-80
2021/01/07 09:06:04;;;;;;;1999.90;999.90;;;3.30;99.90;;;;;;5019574;28;20143;-80
2021/01/07 09:08:32;;;;;;;1999.90;999.90;;;3.30;99.90;;;;;;5019018;28;20252;-80
2021/01/07 09:11:36;;;;;;;1999.90;999.90;;;3.40;99.90;;;;;;5020046;28;20169;-79
2021/01/07 09:14:04;;;;;;;1999.90;999.90;;;3.40;99.90;;;;;;5001125;28;20231;-80
2021/01/07 09:16:30;;;;;;;1999.90;999.90;;;3.40;99.90;;;;;;5087182;23;20241;-87
2021/01/07 09:19:06;;;;;;;1999.90;999.90;;;3.40;99.90;;;;;;4998434;28;20644;-85
2021/01/07 09:21:34;;;;;;;1999.90;999.90;;;3.40;99.90;;;;;;4980682;28;20185;-85
2021/01/07 09:24:00;;;;;;;1999.90;999.90;;;3.40;99.90;;;;;;4997692;28;20171;-84
2021/01/07 09:26:30;;;;;;;1999.90;999.90;;;3.40;99.90;;;;;;4996813;28;20182;-84
2021/01/07 09:29:06;;;;;;;1999.90;999.90;;;3.40;99.90;;;;;;4995617;28;20220;-84
2021/01/07 09:31:37;;;;;;;1999.90;999.90;;;3.40;99.90;;;;;;4979759;28;20163;-88
2021/01/07 09:34:03;;;;;;;1999.90;999.90;;;3.40;99.90;;;;;;4981592;28;20170;-84
2021/01/07 09:36:29;;;;;;;1999.90;999.90;;;3.50;99.90;;;;;;5000018;28;20213;-85
2021/01/07 09:38:55;;;;;;;1999.90;999.90;;;3.40;99.90;;;;;;4999748;28;20176;-85
2021/01/07 09:41:21;;;;;;;1999.90;999.90;;;3.40;99.90;;;;;;4998952;28;20646;-85
2021/01/07 09:43:46;;;;;;;1999.90;999.90;;;3.50;99.90;;;;;;4999053;28;20170;-87
2021/01/07 09:46:12;;;;;;;1999.90;999.90;;;3.50;99.90;;;;;;4998590;28;20414;-85
2021/01/07 09:48:38;;;;;;;1999.90;999.90;;;3.50;99.90;;;;;;4998481;28;20217;-85
2021/01/07 09:51:04;;;;;;;1999.90;999.90;;;3.50;99.90;;;;;;4981591;28;20233;-86
2021/01/07 09:53:29;;;;;;;1999.90;999.90;;;3.50;99.90;;;;;;4999545;28;20158;-85
2021/01/07 09:55:57;;;;;;;1999.90;999.90;;;3.50;99.90;;;;;;5000478;28;20163;-85
2021/01/07 09:58:23;;;;;;;1999.90;999.90;;;3.50;99.90;;;;;;5000949;28;20267;-85
2021/01/07 10:00:49;;;;;;;1999.90;999.90;;;3.50;99.90;;;;;;5001737;28;20194;-86
2021/01/07 10:03:14;;;;;;;1999.90;999.90;;;3.50;99.90;;;;;;5000806;28;20170;-87
2021/01/07 10:05:40;;;;;;;1999.90;999.90;;;3.60;99.90;;;;;;4999432;28;20197;-85
2021/01/07 10:08:07;;;;;;;1999.90;999.90;;;3.60;99.90;;;;;;4999424;28;20210;-85
2021/01/07 10:10:32;;;;;;;1999.90;999.90;;;3.60;99.90;;;;;;4999082;28;20410;-86
2021/01/07 10:12:58;;;;;;;1999.90;999.90;;;3.60;99.90;;;;;;4999926;28;20158;-85
2021/01/07 10:15:24;;;;;;;1999.90;999.90;;;3.50;99.90;;;;;;4982277;28;20169;-86
2021/01/07 10:17:49;;;;;;;1999.90;999.90;;;3.50;99.90;;;;;;5000737;28;20159;-85
2021/01/07 10:20:15;;;;;;;1999.90;999.90;;;3.50;99.90;;;;;;4983345;28;20174;-85
2021/01/07 10:22:42;;;;;;;1999.90;999.90;;;3.50;99.90;;;;;;5000094;28;20174;-86
2021/01/07 10:25:08;;;;;;;1999.90;999.90;;;3.60;99.90;;;;;;5001530;28;20241;-86
2021/01/07 10:27:34;;;;;;;1999.90;999.90;;;3.60;99.90;;;;;;5000774;28;20183;-85
2021/01/07 10:30:00;;;;;;;1999.90;999.90;;;3.50;99.90;;;;;;5001104;28;20169;-86
2021/01/07 10:32:28;;;;;;;1999.90;999.90;;;3.50;99.90;;;;;;4999518;28;20433;-86
2021/01/07 10:34:54;;;;;;;1999.90;999.90;;;3.50;99.90;;;;;;4983342;28;20193;-86
2021/01/07 10:37:30;;;;;;;1999.90;999.90;;;3.50;99.90;;;;;;5000486;28;20167;-86
2021/01/07 10:39:55;;;;;;;1999.90;999.90;;;3.50;99.90;;;;;;5000833;28;20394;-86
2021/01/07 10:42:23;;;;;;;1999.90;999.90;;;3.50;99.90;;;;;;4983721;28;20185;-85
2021/01/07 10:44:50;;;;;;;1999.90;999.90;;;3.50;99.90;;;;;;4983492;28;20425;-86
2021/01/07 10:47:16;;;;;;;1999.90;999.90;;;3.60;99.90;;;;;;4984083;28;20654;-86
2021/01/07 10:49:44;;;;;;;1999.90;999.90;;;3.60;99.90;;;;;;4983471;28;20175;-85
2021/01/07 10:52:13;;;;;;;1999.90;999.90;;;3.60;99.90;;;;;;5000488;28;20188;-85
2021/01/07 10:55:17;;;;;;;1999.90;999.90;;;3.60;99.90;;;;;;4999888;28;20178;-86
2021/01/07 10:57:55;;;;;;;1999.90;999.90;;;3.60;99.90;;;;;;4981881;28;20549;-85
2021/01/07 11:00:53;;;;;;;1999.90;999.90;;;3.60;99.90;;;;;;4998924;28;20165;-86
2021/01/07 11:03:59;;;;;;;1999.90;999.90;;;3.60;99.90;;;;;;5000120;28;20155;-85
2021/01/07 11:06:34;;;;;;;1999.90;999.90;;;3.70;99.90;;;;;;4982664;28;20245;-86
2021/01/07 11:09:09;;;;;;;1999.90;999.90;;;3.80;99.90;;;;;;5000137;28;20264;-85
2021/01/07 11:11:45;;;;;;;1999.90;999.90;;;3.80;99.90;;;;;;5000440;28;20146;-85
2021/01/07 11:14:36;;;;;;;1999.90;999.90;;;3.90;99.90;;;;;;4999705;28;20169;-86
2021/01/07 11:17:10;;;;;;;1999.90;999.90;;;3.90;99.90;;;;;;4999891;28;20178;-86
2021/01/07 11:19:37;;;;;;;1999.90;999.90;;;4.00;99.90;;;;;;5000662;28;20151;-86
2021/01/07 11:22:12;;;;;;;1999.90;999.90;;;4.00;99.90;;;;;;5000390;28;20159;-86
2021/01/07 11:24:40;;;;;;;1999.90;999.90;;;4.00;99.90;;;;;;4999845;28;20158;-86
2021/01/07 11:27:06;;;;;;;1999.90;999.90;;;4.00;99.90;;;;;;5000423;28;20194;-86
2021/01/07 11:29:34;;;;;;;1999.90;999.90;;;4.00;99.90;;;;;;5000571;28;20162;-86
2021/01/07 11:32:02;;;;;;;1999.90;999.90;;;3.90;99.90;;;;;;5000560;28;20189;-85
2021/01/07 11:34:28;;;;;;;1999.90;999.90;;;4.00;99.90;;;;;;4983045;28;20171;-86
2021/01/07 11:37:18;;;;;;;1999.90;999.90;;;4.00;99.90;;;;;;5000657;28;20166;-86
2021/01/07 11:39:50;;;;;;;1999.90;999.90;;;4.00;99.90;;;;;;4981224;28;20177;-85
2021/01/07 11:42:48;;;;;;;1999.90;999.90;;;4.00;99.90;;;;;;4998737;28;20154;-86
2021/01/07 11:45:33;;;;;;;1999.90;999.90;;;3.90;99.90;;;;;;4968100;28;20241;-86
2021/01/07 11:48:08;;;;;;;1999.90;999.90;;;3.90;99.90;;;;;;4985321;28;20190;-86
2021/01/07 11:50:43;;;;;;;1999.90;999.90;;;3.90;99.90;;;;;;4991030;28;20162;-85
2021/01/07 11:53:09;;;;;;;1999.90;999.90;;;3.90;99.90;;;;;;4989427;28;20162;-86
2021/01/07 11:55:38;;;;;;;1999.90;999.90;;;3.90;99.90;;;;;;5003204;28;20262;-86
2021/01/07 11:58:18;;;;;;;1999.90;999.90;;;4.00;99.90;;;;;;5002834;28;20409;-85
2021/01/07 12:00:54;;;;;;;1999.90;999.90;;;3.90;99.90;;;;;;4999369;28;20147;-86
2021/01/07 12:03:25;;;;;;;1999.90;999.90;;;3.90;99.90;;;;;;5003583;28;20154;-86
2021/01/07 12:05:52;;;;;;;1999.90;999.90;;;4.00;99.90;;;;;;4987025;28;20169;-86
2021/01/07 12:08:38;;;;;;;1999.90;999.90;;;4.00;99.90;;;;;;5002470;28;20707;-86
2021/01/07 12:11:06;;;;;;;1999.90;999.90;;;4.00;99.90;;;;;;5002024;28;20557;-86
2021/01/07 12:13:51;;;;;;;1999.90;999.90;;;4.00;99.90;;;;;;5001777;28;20602;-84
2021/01/07 12:16:33;;;;;;;1999.90;999.90;;;4.10;99.90;;;;;;4999063;28;20178;-85
2021/01/07 12:19:02;;;;;;;1999.90;999.90;;;4.00;99.90;;;;;;4999755;28;20190;-85
2021/01/07 12:21:30;;;;;;;1999.90;999.90;;;4.00;99.90;;;;;;5000015;28;20167;-86
2021/01/07 12:23:59;;;;;;;1999.90;999.90;;;4.10;99.90;;;;;;5003853;28;20182;-86
2021/01/07 12:26:26;;;;;;;1999.90;999.90;;;4.10;99.90;;;;;;5003783;28;20163;-86
2021/01/07 12:28:54;;;;;;;1999.90;999.90;;;4.20;99.90;;;;;;5003659;28;20201;-85
2021/01/07 12:31:21;;;;;;;1999.90;999.90;;;4.10;99.90;;;;;;4984963;28;20283;-86
2021/01/07 12:34:12;;;;;;;1999.90;999.90;;;4.10;99.90;;;;;;5002213;28;20166;-86
2021/01/07 12:36:51;;;;;;;1999.90;999.90;;;4.10;99.90;;;;;;4983718;28;20227;-85
2021/01/07 12:39:51;;;;;;;1999.90;999.90;;;4.10;99.90;;;;;;4983504;28;20159;-85
2021/01/07 12:42:34;;;;;;;1999.90;999.90;;;4.10;99.90;;;;;;5001888;28;20210;-86
2021/01/07 12:45:07;;;;;;;1999.90;999.90;;;4.10;99.90;;;;;;4981391;28;20150;-85
2021/01/07 12:47:33;;;;;;;1999.90;999.90;;;4.10;99.90;;;;;;4997878;28;20242;-85
2021/01/07 12:50:02;;;;;;;1999.90;999.90;;;4.10;99.90;;;;;;4997545;28;20163;-86
2021/01/07 12:52:30;;;;;;;1999.90;999.90;;;4.10;99.90;;;;;;4998053;28;20162;-85